メインページ
METAR-TAF:

METAR-TAF

空港 :

キーシュ国際空港

キーシュ島, イラン

緯度: 26-31-36N, 経度: 053-58-54E, 海抜: 30m

現時点の気象観測

当レポートは26分前の04:30(UTC)に作成
変向風 2kt
気温 32°C
湿度 38%
気圧 1006 hPa
視程10km以上
高度3500ftの雲はほとんどない
高度9000ftの雲は散在している

METAR: OIBK 220430Z VRB02KT 9999 FEW035 SCT090 32/16 Q1006

時間: 09:26 (04:56 UTC)

予報

当レポートは5時間56分前の23:00(UTC)に作成
予報は22日の 00時(UTC)から 23日の 06時(UTC)まで有効
東/南東の風 8kt
視程: 6000m
高度3000ftの千切れ雲あり
高度8000ftの千切れ雲あり
22日の 00時(UTC)から 22日の 04時(UTC)まで一時的に
高度3000ftの雲はほとんどない, 積乱雲.
高度3500ftの雲は散在している
高度8000ftの千切れ雲あり
22日の 04時(UTC)から 22日の 09時(UTC)まで一時的に
視程: 4000m
高度3000ftの雲はほとんどない, 積乱雲.
高度3500ftの雲は散在している
高度8000ftの千切れ雲あり
にわか雨
22日の 10時(UTC)から 22日の 14時(UTC)まで一時的に
西/北西の風 18kt
高度3000ftの雲はほとんどない, 積乱雲.
高度9000ftの雲は散在している
22日の 18時(UTC)から 22日の 20時(UTC)まで徐々に
西/北西の風 20kt
22日の 22時(UTC)から 23日の 06時(UTC)まで一時的に
西/北西の風 30kt

TAF: OIBK 212300Z 2200/2306 12008KT 6000 BKN030 BKN080 TEMPO 2200/2204 FEW030CB SCT035 BKN080 TEMPO 2204/2209 4000 SHRA FEW030CB SCT035 BKN080 TEMPO 2210/2214 30018KT FEW030CB SCT090 BECMG 2218/2220 30020KT TEMPO 2222/2306 30030KT

4,000以上の空港の気象観測と天気予報(METAR報とTAF報)

利用可能な観測所は地図上に黄色い丸と赤い丸で示す。

丸の上にカーソルを重ねると観測所名を参照できる。

次にクリックすると気象観測と天気予報を参照できる。

マップの切り替え:黒色「×」印の緑ボタンをクリックして拡大、「-」印の緑ボタンをクリックして縮小、緑色の三角印をクリックして隣りの地図に切り替え


METAR-TAF: